Sjenica, Serbia
Current Conditions -  °F | °C
As of 12:00 PM on Friday 24 Oct 2014 (Local Time) from LYUZ Reporting Station
Scattered Clouds Scattered Clouds  
Wind Chill: 43°   Ceiling: Unl
Heat Index: 43°   Visibility: 6mi
Dew Point: 36°   Wind: 1mph
Humidity: 76%   Direction: NA
Pressure: 29.88"   Gusts: NA
Location:  43.27°N, 20°E
Report Text: LYUZ 241000Z VRB01KT 9999 SCT017 06/02 Q1012
Loading
Personal Weather Stations






























Interactive Weather Map
Tropical Storm Tracking
New forecast layout! Learn more

10-Day Weather Forecast

Advertisements
Track Severe Weather on mobile